sensor_id;sensor_type;location;lat;lon;timestamp;P1;durP1;ratioP1;P2;durP2;ratioP2
9384;SDS011;4732;49.340;10.886;2024-02-21T04:02:16;11.00;;;3.03;;
9384;SDS011;4732;49.340;10.886;2024-02-21T04:04:42;11.27;;;3.20;;
9384;SDS011;4732;49.340;10.886;2024-02-21T04:07:12;10.13;;;3.27;;
9384;SDS011;4732;49.340;10.886;2024-02-21T04:09:38;10.13;;;3.53;;
9384;SDS011;4732;49.340;10.886;2024-02-21T04:12:03;9.90;;;3.20;;
9384;SDS011;4732;49.340;10.886;2024-02-21T04:14:29;11.37;;;3.83;;
9384;SDS011;4732;49.340;10.886;2024-02-21T04:16:55;10.80;;;3.53;;
9384;SDS011;4732;49.340;10.886;2024-02-21T04:19:20;8.97;;;3.27;;
9384;SDS011;4732;49.340;10.886;2024-02-21T04:21:46;15.23;;;3.43;;
9384;SDS011;4732;49.340;10.886;2024-02-21T04:24:11;12.40;;;3.87;;
9384;SDS011;4732;49.340;10.886;2024-02-21T04:26:37;13.03;;;4.13;;
9384;SDS011;4732;49.340;10.886;2024-02-21T04:29:02;10.03;;;3.47;;
9384;SDS011;4732;49.340;10.886;2024-02-21T04:31:28;9.83;;;3.40;;
9384;SDS011;4732;49.340;10.886;2024-02-21T04:33:53;12.77;;;3.63;;
9384;SDS011;4732;49.340;10.886;2024-02-21T04:36:19;14.07;;;4.17;;
9384;SDS011;4732;49.340;10.886;2024-02-21T04:38:45;10.53;;;3.70;;
9384;SDS011;4732;49.340;10.886;2024-02-21T04:41:10;9.30;;;3.57;;
9384;SDS011;4732;49.340;10.886;2024-02-21T04:43:36;15.17;;;6.30;;
9384;SDS011;4732;49.340;10.886;2024-02-21T04:46:01;14.17;;;4.80;;
9384;SDS011;4732;49.340;10.886;2024-02-21T04:48:27;6.47;;;3.00;;
9384;SDS011;4732;49.340;10.886;2024-02-21T04:50:52;10.27;;;3.50;;
9384;SDS011;4732;49.340;10.886;2024-02-21T04:53:18;9.13;;;3.73;;
9384;SDS011;4732;49.340;10.886;2024-02-21T04:55:43;8.40;;;3.47;;
9384;SDS011;4732;49.340;10.886;2024-02-21T04:58:09;7.00;;;3.13;;
9384;SDS011;4732;49.340;10.886;2024-02-21T05:00:35;11.60;;;3.73;;
9384;SDS011;4732;49.340;10.886;2024-02-21T05:03:00;12.83;;;3.70;;
9384;SDS011;4732;49.340;10.886;2024-02-21T05:05:26;11.93;;;3.50;;
9384;SDS011;4732;49.340;10.886;2024-02-21T05:07:51;12.30;;;3.40;;
9384;SDS011;4732;49.340;10.886;2024-02-21T05:10:17;9.37;;;3.83;;
9384;SDS011;4732;49.340;10.886;2024-02-21T05:12:44;8.27;;;3.60;;
9384;SDS011;4732;49.340;10.886;2024-02-21T05:15:09;6.43;;;3.00;;
9384;SDS011;4732;49.340;10.886;2024-02-21T05:17:35;9.43;;;3.60;;
9384;SDS011;4732;49.340;10.886;2024-02-21T05:20:00;14.23;;;4.00;;
9384;SDS011;4732;49.340;10.886;2024-02-21T05:22:26;11.10;;;3.97;;
9384;SDS011;4732;49.340;10.886;2024-02-21T05:24:51;10.47;;;3.40;;
9384;SDS011;4732;49.340;10.886;2024-02-21T05:27:17;8.70;;;3.37;;
9384;SDS011;4732;49.340;10.886;2024-02-21T05:29:42;9.17;;;3.20;;
9384;SDS011;4732;49.340;10.886;2024-02-21T05:32:08;8.80;;;3.63;;
9384;SDS011;4732;49.340;10.886;2024-02-21T05:34:33;10.87;;;3.63;;
9384;SDS011;4732;49.340;10.886;2024-02-21T05:36:59;15.63;;;3.80;;
9384;SDS011;4732;49.340;10.886;2024-02-21T05:39:25;10.23;;;3.43;;
9384;SDS011;4732;49.340;10.886;2024-02-21T05:41:51;12.60;;;3.77;;
9384;SDS011;4732;49.340;10.886;2024-02-21T05:44:18;9.30;;;3.57;;
9384;SDS011;4732;49.340;10.886;2024-02-21T05:46:44;13.47;;;3.37;;
9384;SDS011;4732;49.340;10.886;2024-02-21T05:49:10;10.20;;;3.23;;
9384;SDS011;4732;49.340;10.886;2024-02-21T05:51:35;10.23;;;3.30;;
9384;SDS011;4732;49.340;10.886;2024-02-21T05:54:01;11.50;;;3.40;;
9384;SDS011;4732;49.340;10.886;2024-02-21T05:56:26;6.90;;;3.00;;
9384;SDS011;4732;49.340;10.886;2024-02-21T05:58:53;7.87;;;3.83;;
9384;SDS011;4732;49.340;10.886;2024-02-21T06:01:19;8.70;;;3.67;;
9384;SDS011;4732;49.340;10.886;2024-02-21T06:03:46;9.13;;;4.07;;
9384;SDS011;4732;49.340;10.886;2024-02-21T06:06:12;11.97;;;3.40;;
9384;SDS011;4732;49.340;10.886;2024-02-21T06:08:39;14.43;;;3.77;;
9384;SDS011;4732;49.340;10.886;2024-02-21T06:11:05;9.73;;;3.40;;
9384;SDS011;4732;49.340;10.886;2024-02-21T06:13:31;7.87;;;3.47;;
9384;SDS011;4732;49.340;10.886;2024-02-21T06:15:57;11.73;;;3.90;;
9384;SDS011;4732;49.340;10.886;2024-02-21T06:18:23;12.60;;;3.60;;
9384;SDS011;4732;49.340;10.886;2024-02-21T06:20:49;10.00;;;3.37;;
9384;SDS011;4732;49.340;10.886;2024-02-21T06:23:15;14.10;;;3.57;;
9384;SDS011;4732;49.340;10.886;2024-02-21T06:25:42;9.13;;;3.77;;
9384;SDS011;4732;49.340;10.886;2024-02-21T06:28:08;8.47;;;3.40;;
9384;SDS011;4732;49.340;10.886;2024-02-21T06:30:34;11.60;;;3.80;;
9384;SDS011;4732;49.340;10.886;2024-02-21T06:33:00;6.80;;;3.37;;
9384;SDS011;4732;49.340;10.886;2024-02-21T06:35:27;12.40;;;3.07;;
9384;SDS011;4732;49.340;10.886;2024-02-21T06:37:53;12.10;;;3.53;;
9384;SDS011;4732;49.340;10.886;2024-02-21T06:40:20;7.60;;;3.33;;
9384;SDS011;4732;49.340;10.886;2024-02-21T06:42:47;10.10;;;3.97;;
9384;SDS011;4732;49.340;10.886;2024-02-21T06:45:13;8.93;;;3.70;;
9384;SDS011;4732;49.340;10.886;2024-02-21T06:47:38;18.17;;;4.50;;
9384;SDS011;4732;49.340;10.886;2024-02-21T06:50:04;12.13;;;3.80;;
9384;SDS011;4732;49.340;10.886;2024-02-21T06:52:30;9.73;;;3.30;;
9384;SDS011;4732;49.340;10.886;2024-02-21T06:54:57;7.43;;;3.10;;
9384;SDS011;4732;49.340;10.886;2024-02-21T06:57:23;6.73;;;3.20;;
9384;SDS011;4732;49.340;10.886;2024-02-21T06:59:49;12.63;;;4.20;;
9384;SDS011;4732;49.340;10.886;2024-02-21T07:02:15;12.80;;;6.70;;
9384;SDS011;4732;49.340;10.886;2024-02-21T07:04:40;13.30;;;7.43;;
9384;SDS011;4732;49.340;10.886;2024-02-21T07:07:06;11.67;;;6.13;;
9384;SDS011;4732;49.340;10.886;2024-02-21T07:09:33;10.67;;;4.63;;
9384;SDS011;4732;49.340;10.886;2024-02-21T07:11:59;12.20;;;4.33;;
9384;SDS011;4732;49.340;10.886;2024-02-21T07:14:25;10.60;;;4.10;;
9384;SDS011;4732;49.340;10.886;2024-02-21T07:16:51;10.00;;;4.00;;
9384;SDS011;4732;49.340;10.886;2024-02-21T07:19:17;9.00;;;4.70;;
9384;SDS011;4732;49.340;10.886;2024-02-21T07:21:43;10.73;;;4.30;;
9384;SDS011;4732;49.340;10.886;2024-02-21T07:24:09;8.53;;;4.80;;
9384;SDS011;4732;49.340;10.886;2024-02-21T07:26:35;10.97;;;3.80;;
9384;SDS011;4732;49.340;10.886;2024-02-21T07:29:01;8.90;;;4.40;;
9384;SDS011;4732;49.340;10.886;2024-02-21T07:31:27;8.10;;;3.77;;
9384;SDS011;4732;49.340;10.886;2024-02-21T07:33:52;11.00;;;3.27;;
9384;SDS011;4732;49.340;10.886;2024-02-21T07:36:28;7.87;;;3.67;;
9384;SDS011;4732;49.340;10.886;2024-02-21T07:38:55;8.20;;;3.40;;
9384;SDS011;4732;49.340;10.886;2024-02-21T07:41:21;10.87;;;3.63;;
9384;SDS011;4732;49.340;10.886;2024-02-21T07:43:47;8.03;;;3.30;;
9384;SDS011;4732;49.340;10.886;2024-02-21T07:46:16;5.37;;;2.70;;
9384;SDS011;4732;49.340;10.886;2024-02-21T07:48:42;7.17;;;2.57;;
9384;SDS011;4732;49.340;10.886;2024-02-21T07:51:08;6.87;;;3.60;;
9384;SDS011;4732;49.340;10.886;2024-02-21T07:53:34;9.83;;;3.00;;
9384;SDS011;4732;49.340;10.886;2024-02-21T07:56:00;11.87;;;3.67;;
9384;SDS011;4732;49.340;10.886;2024-02-21T07:58:26;11.47;;;3.40;;
9384;SDS011;4732;49.340;10.886;2024-02-21T08:00:52;7.30;;;3.20;;
9384;SDS011;4732;49.340;10.886;2024-02-21T08:03:18;10.80;;;4.73;;
9384;SDS011;4732;49.340;10.886;2024-02-21T08:05:44;6.83;;;3.00;;
9384;SDS011;4732;49.340;10.886;2024-02-21T08:08:10;8.40;;;3.73;;
9384;SDS011;4732;49.340;10.886;2024-02-21T08:10:36;7.07;;;2.90;;
9384;SDS011;4732;49.340;10.886;2024-02-21T08:13:02;7.83;;;2.90;;
9384;SDS011;4732;49.340;10.886;2024-02-21T08:15:28;10.60;;;3.20;;
9384;SDS011;4732;49.340;10.886;2024-02-21T08:17:55;9.60;;;2.90;;
9384;SDS011;4732;49.340;10.886;2024-02-21T08:20:26;8.40;;;3.13;;
9384;SDS011;4732;49.340;10.886;2024-02-21T08:22:52;9.50;;;2.83;;
9384;SDS011;4732;49.340;10.886;2024-02-21T08:25:18;8.07;;;2.73;;
9384;SDS011;4732;49.340;10.886;2024-02-21T08:27:43;8.90;;;2.93;;
9384;SDS011;4732;49.340;10.886;2024-02-21T08:30:10;7.37;;;2.97;;
9384;SDS011;4732;49.340;10.886;2024-02-21T08:32:36;8.13;;;3.20;;
9384;SDS011;4732;49.340;10.886;2024-02-21T08:35:02;7.27;;;2.63;;
9384;SDS011;4732;49.340;10.886;2024-02-21T08:37:28;7.90;;;3.30;;
9384;SDS011;4732;49.340;10.886;2024-02-21T08:39:53;6.53;;;2.90;;
9384;SDS011;4732;49.340;10.886;2024-02-21T08:42:19;6.77;;;2.70;;
9384;SDS011;4732;49.340;10.886;2024-02-21T08:44:44;5.97;;;2.40;;
9384;SDS011;4732;49.340;10.886;2024-02-21T08:47:10;8.67;;;3.33;;
9384;SDS011;4732;49.340;10.886;2024-02-21T08:49:36;6.53;;;2.80;;
9384;SDS011;4732;49.340;10.886;2024-02-21T08:52:02;9.07;;;2.83;;
9384;SDS011;4732;49.340;10.886;2024-02-21T08:54:28;7.10;;;2.67;;
9384;SDS011;4732;49.340;10.886;2024-02-21T08:56:54;6.17;;;2.20;;
9384;SDS011;4732;49.340;10.886;2024-02-21T08:59:19;5.77;;;2.60;;
9384;SDS011;4732;49.340;10.886;2024-02-21T09:01:46;10.77;;;3.10;;
9384;SDS011;4732;49.340;10.886;2024-02-21T09:04:12;7.70;;;2.33;;
9384;SDS011;4732;49.340;10.886;2024-02-21T09:06:38;6.23;;;2.70;;
9384;SDS011;4732;49.340;10.886;2024-02-21T09:09:07;8.77;;;2.80;;
9384;SDS011;4732;49.340;10.886;2024-02-21T09:11:33;7.40;;;2.57;;
9384;SDS011;4732;49.340;10.886;2024-02-21T09:13:59;5.33;;;2.30;;
9384;SDS011;4732;49.340;10.886;2024-02-21T09:16:25;8.43;;;2.80;;
9384;SDS011;4732;49.340;10.886;2024-02-21T09:18:51;9.17;;;3.30;;
9384;SDS011;4732;49.340;10.886;2024-02-21T09:21:17;5.27;;;2.30;;
9384;SDS011;4732;49.340;10.886;2024-02-21T09:23:43;9.07;;;2.78;;
9384;SDS011;4732;49.340;10.886;2024-02-21T09:26:09;6.40;;;2.50;;
9384;SDS011;4732;49.340;10.886;2024-02-21T09:28:38;7.75;;;2.58;;
9384;SDS011;4732;49.340;10.886;2024-02-21T09:31:04;7.45;;;2.70;;
9384;SDS011;4732;49.340;10.886;2024-02-21T09:33:30;7.70;;;2.20;;
9384;SDS011;4732;49.340;10.886;2024-02-21T09:35:56;10.95;;;2.83;;
9384;SDS011;4732;49.340;10.886;2024-02-21T09:38:22;10.20;;;2.50;;
9384;SDS011;4732;49.340;10.886;2024-02-21T09:40:53;7.82;;;2.90;;
9384;SDS011;4732;49.340;10.886;2024-02-21T09:43:21;7.80;;;2.95;;
9384;SDS011;4732;49.340;10.886;2024-02-21T09:45:47;3.95;;;2.20;;
9384;SDS011;4732;49.340;10.886;2024-02-21T09:50:55;6.35;;;2.58;;
9384;SDS011;4732;49.340;10.886;2024-02-21T09:53:23;8.88;;;2.55;;
9384;SDS011;4732;49.340;10.886;2024-02-21T09:55:50;6.20;;;2.38;;
9384;SDS011;4732;49.340;10.886;2024-02-21T09:58:16;6.95;;;2.20;;
9384;SDS011;4732;49.340;10.886;2024-02-21T10:00:43;6.60;;;2.28;;
9384;SDS011;4732;49.340;10.886;2024-02-21T10:03:09;5.05;;;2.10;;
9384;SDS011;4732;49.340;10.886;2024-02-21T10:05:35;5.07;;;2.17;;
9384;SDS011;4732;49.340;10.886;2024-02-21T10:08:02;6.13;;;2.30;;
9384;SDS011;4732;49.340;10.886;2024-02-21T10:10:28;8.00;;;2.40;;
9384;SDS011;4732;49.340;10.886;2024-02-21T10:12:55;8.15;;;2.85;;
9384;SDS011;4732;49.340;10.886;2024-02-21T10:15:21;5.82;;;2.25;;
9384;SDS011;4732;49.340;10.886;2024-02-21T10:17:47;7.00;;;2.70;;
9384;SDS011;4732;49.340;10.886;2024-02-21T10:20:13;9.40;;;2.58;;
9384;SDS011;4732;49.340;10.886;2024-02-21T10:22:40;4.85;;;2.10;;
9384;SDS011;4732;49.340;10.886;2024-02-21T10:25:09;6.97;;;2.53;;
9384;SDS011;4732;49.340;10.886;2024-02-21T10:27:36;8.52;;;2.50;;
9384;SDS011;4732;49.340;10.886;2024-02-21T10:30:02;10.82;;;2.10;;
9384;SDS011;4732;49.340;10.886;2024-02-21T10:32:29;5.60;;;2.35;;
9384;SDS011;4732;49.340;10.886;2024-02-21T10:35:02;5.57;;;2.25;;
9384;SDS011;4732;49.340;10.886;2024-02-21T10:37:31;6.72;;;2.00;;
9384;SDS011;4732;49.340;10.886;2024-02-21T10:39:57;7.30;;;2.55;;
9384;SDS011;4732;49.340;10.886;2024-02-21T10:42:22;7.05;;;2.60;;
9384;SDS011;4732;49.340;10.886;2024-02-21T10:44:53;7.53;;;2.50;;
9384;SDS011;4732;49.340;10.886;2024-02-21T10:47:25;6.80;;;2.00;;
9384;SDS011;4732;49.340;10.886;2024-02-21T10:49:56;5.68;;;2.10;;
9384;SDS011;4732;49.340;10.886;2024-02-21T10:54:53;7.25;;;2.58;;
9384;SDS011;4732;49.340;10.886;2024-02-21T10:57:25;7.60;;;2.38;;
9384;SDS011;4732;49.340;10.886;2024-02-21T10:59:55;8.82;;;2.53;;
9384;SDS011;4732;49.340;10.886;2024-02-21T11:02:23;7.28;;;2.53;;
9384;SDS011;4732;49.340;10.886;2024-02-21T11:04:49;7.35;;;2.60;;
9384;SDS011;4732;49.340;10.886;2024-02-21T11:07:15;5.88;;;2.10;;
9384;SDS011;4732;49.340;10.886;2024-02-21T11:09:50;6.35;;;1.60;;
9384;SDS011;4732;49.340;10.886;2024-02-21T11:12:20;6.05;;;1.85;;
9384;SDS011;4732;49.340;10.886;2024-02-21T11:14:46;6.30;;;2.00;;
9384;SDS011;4732;49.340;10.886;2024-02-21T11:17:18;6.43;;;1.83;;
9384;SDS011;4732;49.340;10.886;2024-02-21T11:19:46;4.82;;;1.67;;
9384;SDS011;4732;49.340;10.886;2024-02-21T11:22:19;6.05;;;1.73;;
9384;SDS011;4732;49.340;10.886;2024-02-21T11:24:49;6.65;;;1.92;;
9384;SDS011;4732;49.340;10.886;2024-02-21T11:27:15;4.07;;;1.42;;
9384;SDS011;4732;49.340;10.886;2024-02-21T11:29:49;5.13;;;1.70;;
9384;SDS011;4732;49.340;10.886;2024-02-21T11:32:20;6.20;;;1.67;;
9384;SDS011;4732;49.340;10.886;2024-02-21T11:34:59;5.68;;;1.75;;
9384;SDS011;4732;49.340;10.886;2024-02-21T11:37:29;5.22;;;1.48;;
9384;SDS011;4732;49.340;10.886;2024-02-21T11:39:55;6.95;;;1.67;;
9384;SDS011;4732;49.340;10.886;2024-02-21T11:42:21;5.95;;;1.98;;
9384;SDS011;4732;49.340;10.886;2024-02-21T11:44:47;4.90;;;1.75;;
9384;SDS011;4732;49.340;10.886;2024-02-21T11:47:16;3.33;;;1.50;;
9384;SDS011;4732;49.340;10.886;2024-02-21T11:49:46;7.72;;;1.98;;
9384;SDS011;4732;49.340;10.886;2024-02-21T11:52:14;5.43;;;1.73;;
9384;SDS011;4732;49.340;10.886;2024-02-21T11:54:45;6.03;;;1.92;;
9384;SDS011;4732;49.340;10.886;2024-02-21T11:57:11;5.57;;;1.67;;
9384;SDS011;4732;49.340;10.886;2024-02-21T11:59:37;5.55;;;1.63;;
9384;SDS011;4732;49.340;10.886;2024-02-21T12:02:04;6.32;;;1.83;;
9384;SDS011;4732;49.340;10.886;2024-02-21T12:04:30;4.22;;;1.45;;
9384;SDS011;4732;49.340;10.886;2024-02-21T12:06:57;3.80;;;1.58;;
9384;SDS011;4732;49.340;10.886;2024-02-21T12:09:23;5.07;;;1.60;;
9384;SDS011;4732;49.340;10.886;2024-02-21T12:14:25;3.55;;;1.48;;
9384;SDS011;4732;49.340;10.886;2024-02-21T12:16:51;7.50;;;2.03;;
9384;SDS011;4732;49.340;10.886;2024-02-21T12:19:17;5.50;;;1.60;;
9384;SDS011;4732;49.340;10.886;2024-02-21T12:21:43;5.75;;;1.77;;
9384;SDS011;4732;49.340;10.886;2024-02-21T12:26:43;6.65;;;1.90;;
9384;SDS011;4732;49.340;10.886;2024-02-21T12:29:08;7.40;;;1.30;;
9384;SDS011;4732;49.340;10.886;2024-02-21T12:31:37;3.92;;;1.45;;
9384;SDS011;4732;49.340;10.886;2024-02-21T12:34:03;3.45;;;1.50;;
9384;SDS011;4732;49.340;10.886;2024-02-21T12:36:32;4.22;;;1.58;;
9384;SDS011;4732;49.340;10.886;2024-02-21T12:38:58;4.90;;;1.50;;
9384;SDS011;4732;49.340;10.886;2024-02-21T12:41:25;5.75;;;1.73;;
9384;SDS011;4732;49.340;10.886;2024-02-21T12:43:51;3.75;;;1.48;;
9384;SDS011;4732;49.340;10.886;2024-02-21T12:46:17;4.50;;;1.48;;
9384;SDS011;4732;49.340;10.886;2024-02-21T12:48:43;5.20;;;1.70;;
9384;SDS011;4732;49.340;10.886;2024-02-21T12:51:08;2.97;;;1.23;;
9384;SDS011;4732;49.340;10.886;2024-02-21T12:53:34;4.60;;;1.55;;
9384;SDS011;4732;49.340;10.886;2024-02-21T12:56:00;4.35;;;1.50;;
9384;SDS011;4732;49.340;10.886;2024-02-21T12:58:26;4.18;;;1.40;;
9384;SDS011;4732;49.340;10.886;2024-02-21T13:00:51;4.15;;;1.25;;
9384;SDS011;4732;49.340;10.886;2024-02-21T13:03:18;4.68;;;1.17;;
9384;SDS011;4732;49.340;10.886;2024-02-21T13:05:43;5.22;;;1.42;;
9384;SDS011;4732;49.340;10.886;2024-02-21T13:08:09;5.35;;;1.60;;
9384;SDS011;4732;49.340;10.886;2024-02-21T13:10:35;3.45;;;1.40;;
9384;SDS011;4732;49.340;10.886;2024-02-21T13:13:01;5.03;;;1.27;;
9384;SDS011;4732;49.340;10.886;2024-02-21T13:15:27;4.65;;;1.55;;
9384;SDS011;4732;49.340;10.886;2024-02-21T13:17:56;4.05;;;1.55;;
9384;SDS011;4732;49.340;10.886;2024-02-21T13:20:22;4.53;;;1.30;;
9384;SDS011;4732;49.340;10.886;2024-02-21T13:22:48;5.43;;;1.55;;
9384;SDS011;4732;49.340;10.886;2024-02-21T13:25:14;6.63;;;1.65;;
9384;SDS011;4732;49.340;10.886;2024-02-21T13:27:43;3.40;;;1.40;;
9384;SDS011;4732;49.340;10.886;2024-02-21T13:30:09;6.30;;;1.40;;
9384;SDS011;4732;49.340;10.886;2024-02-21T13:32:35;5.88;;;1.55;;
9384;SDS011;4732;49.340;10.886;2024-02-21T13:35:01;6.15;;;1.33;;
9384;SDS011;4732;49.340;10.886;2024-02-21T13:37:28;4.18;;;1.60;;
9384;SDS011;4732;49.340;10.886;2024-02-21T13:39:53;4.43;;;1.40;;
9384;SDS011;4732;49.340;10.886;2024-02-21T13:42:19;2.58;;;1.10;;
9384;SDS011;4732;49.340;10.886;2024-02-21T13:44:45;3.88;;;1.40;;
9384;SDS011;4732;49.340;10.886;2024-02-21T13:47:14;3.20;;;1.02;;
9384;SDS011;4732;49.340;10.886;2024-02-21T13:49:40;4.68;;;1.65;;
9384;SDS011;4732;49.340;10.886;2024-02-21T13:52:06;4.70;;;1.17;;
9384;SDS011;4732;49.340;10.886;2024-02-21T13:54:31;4.60;;;0.98;;
9384;SDS011;4732;49.340;10.886;2024-02-21T13:56:57;4.25;;;1.00;;
9384;SDS011;4732;49.340;10.886;2024-02-21T13:59:22;2.20;;;0.88;;
9384;SDS011;4732;49.340;10.886;2024-02-21T14:01:48;3.40;;;1.10;;
9384;SDS011;4732;49.340;10.886;2024-02-21T14:04:14;3.92;;;1.08;;
9384;SDS011;4732;49.340;10.886;2024-02-21T14:06:40;4.30;;;1.40;;
9384;SDS011;4732;49.340;10.886;2024-02-21T14:09:08;2.28;;;1.10;;
9384;SDS011;4732;49.340;10.886;2024-02-21T14:11:34;2.35;;;0.82;;
9384;SDS011;4732;49.340;10.886;2024-02-21T14:14:00;3.50;;;1.08;;
9384;SDS011;4732;49.340;10.886;2024-02-21T14:16:26;4.22;;;1.33;;
9384;SDS011;4732;49.340;10.886;2024-02-21T14:18:51;10.52;;;1.42;;
9384;SDS011;4732;49.340;10.886;2024-02-21T14:21:19;2.30;;;0.88;;
9384;SDS011;4732;49.340;10.886;2024-02-21T14:23:44;4.72;;;1.30;;
9384;SDS011;4732;49.340;10.886;2024-02-21T14:26:10;3.60;;;1.10;;
9384;SDS011;4732;49.340;10.886;2024-02-21T14:28:37;2.83;;;0.85;;
9384;SDS011;4732;49.340;10.886;2024-02-21T14:31:02;10.50;;;1.50;;
9384;SDS011;4732;49.340;10.886;2024-02-21T14:33:31;4.00;;;1.13;;
9384;SDS011;4732;49.340;10.886;2024-02-21T14:35:56;4.38;;;1.20;;
9384;SDS011;4732;49.340;10.886;2024-02-21T14:38:22;3.28;;;1.20;;
9384;SDS011;4732;49.340;10.886;2024-02-21T14:40:47;6.00;;;1.30;;
9384;SDS011;4732;49.340;10.886;2024-02-21T14:43:13;2.92;;;1.38;;
9384;SDS011;4732;49.340;10.886;2024-02-21T14:45:39;3.13;;;1.50;;
9384;SDS011;4732;49.340;10.886;2024-02-21T14:48:05;3.13;;;1.15;;
9384;SDS011;4732;49.340;10.886;2024-02-21T14:50:32;4.85;;;1.30;;
9384;SDS011;4732;49.340;10.886;2024-02-21T14:52:57;5.63;;;1.42;;
9384;SDS011;4732;49.340;10.886;2024-02-21T14:55:23;3.83;;;1.30;;
9384;SDS011;4732;49.340;10.886;2024-02-21T14:57:49;4.72;;;1.50;;
9384;SDS011;4732;49.340;10.886;2024-02-21T15:00:14;3.15;;;1.40;;
9384;SDS011;4732;49.340;10.886;2024-02-21T15:02:40;6.03;;;1.67;;
9384;SDS011;4732;49.340;10.886;2024-02-21T15:05:06;4.35;;;1.50;;
9384;SDS011;4732;49.340;10.886;2024-02-21T15:07:32;3.90;;;1.45;;
9384;SDS011;4732;49.340;10.886;2024-02-21T15:09:58;2.47;;;1.30;;
9384;SDS011;4732;49.340;10.886;2024-02-21T15:12:24;3.60;;;1.58;;
9384;SDS011;4732;49.340;10.886;2024-02-21T15:14:50;3.55;;;1.42;;
9384;SDS011;4732;49.340;10.886;2024-02-21T15:17:16;3.80;;;1.45;;
9384;SDS011;4732;49.340;10.886;2024-02-21T15:19:42;4.22;;;1.45;;
9384;SDS011;4732;49.340;10.886;2024-02-21T15:22:12;4.60;;;1.50;;
9384;SDS011;4732;49.340;10.886;2024-02-21T15:24:41;7.10;;;2.13;;
9384;SDS011;4732;49.340;10.886;2024-02-21T15:27:07;3.33;;;2.00;;
9384;SDS011;4732;49.340;10.886;2024-02-21T15:29:33;6.50;;;1.92;;
9384;SDS011;4732;49.340;10.886;2024-02-21T15:32:00;4.80;;;1.90;;
9384;SDS011;4732;49.340;10.886;2024-02-21T15:34:27;3.88;;;1.80;;
9384;SDS011;4732;49.340;10.886;2024-02-21T15:36:53;4.25;;;1.40;;
9384;SDS011;4732;49.340;10.886;2024-02-21T15:39:18;2.90;;;1.45;;
9384;SDS011;4732;49.340;10.886;2024-02-21T15:41:44;2.58;;;1.40;;
9384;SDS011;4732;49.340;10.886;2024-02-21T15:44:09;2.85;;;1.20;;
9384;SDS011;4732;49.340;10.886;2024-02-21T15:46:35;4.20;;;1.77;;
9384;SDS011;4732;49.340;10.886;2024-02-21T15:49:01;10.32;;;5.63;;
9384;SDS011;4732;49.340;10.886;2024-02-21T15:51:27;13.80;;;9.95;;
9384;SDS011;4732;49.340;10.886;2024-02-21T15:53:55;7.13;;;4.10;;
9384;SDS011;4732;49.340;10.886;2024-02-21T15:56:20;3.90;;;2.90;;
9384;SDS011;4732;49.340;10.886;2024-02-21T15:58:46;3.53;;;1.92;;
9384;SDS011;4732;49.340;10.886;2024-02-21T16:01:11;3.03;;;1.88;;
9384;SDS011;4732;49.340;10.886;2024-02-21T16:03:40;2.78;;;1.70;;
9384;SDS011;4732;49.340;10.886;2024-02-21T16:06:06;4.50;;;1.52;;
9384;SDS011;4732;49.340;10.886;2024-02-21T16:08:31;4.75;;;1.90;;
9384;SDS011;4732;49.340;10.886;2024-02-21T16:11:01;3.50;;;1.80;;
9384;SDS011;4732;49.340;10.886;2024-02-21T16:13:29;3.22;;;1.58;;
9384;SDS011;4732;49.340;10.886;2024-02-21T16:15:55;3.08;;;1.45;;
9384;SDS011;4732;49.340;10.886;2024-02-21T16:18:21;3.10;;;1.40;;
9384;SDS011;4732;49.340;10.886;2024-02-21T16:20:48;2.83;;;1.40;;
9384;SDS011;4732;49.340;10.886;2024-02-21T16:23:14;5.60;;;1.70;;
9384;SDS011;4732;49.340;10.886;2024-02-21T16:25:40;3.50;;;1.60;;
9384;SDS011;4732;49.340;10.886;2024-02-21T16:28:06;4.32;;;1.48;;
9384;SDS011;4732;49.340;10.886;2024-02-21T16:30:33;6.68;;;1.90;;
9384;SDS011;4732;49.340;10.886;2024-02-21T16:32:59;3.40;;;1.50;;
9384;SDS011;4732;49.340;10.886;2024-02-21T16:35:24;6.22;;;1.65;;
9384;SDS011;4732;49.340;10.886;2024-02-21T16:37:53;3.28;;;1.40;;
9384;SDS011;4732;49.340;10.886;2024-02-21T16:40:19;4.28;;;1.30;;
9384;SDS011;4732;49.340;10.886;2024-02-21T16:42:44;3.10;;;1.58;;
9384;SDS011;4732;49.340;10.886;2024-02-21T16:45:10;3.22;;;1.58;;
9384;SDS011;4732;49.340;10.886;2024-02-21T16:47:36;3.00;;;1.17;;
9384;SDS011;4732;49.340;10.886;2024-02-21T16:50:02;2.92;;;1.50;;
9384;SDS011;4732;49.340;10.886;2024-02-21T16:52:29;3.03;;;1.40;;
9384;SDS011;4732;49.340;10.886;2024-02-21T16:54:56;6.00;;;2.03;;
9384;SDS011;4732;49.340;10.886;2024-02-21T16:57:22;3.55;;;1.58;;
9384;SDS011;4732;49.340;10.886;2024-02-21T16:59:57;6.55;;;2.42;;
9384;SDS011;4732;49.340;10.886;2024-02-21T17:02:25;3.38;;;1.75;;
9384;SDS011;4732;49.340;10.886;2024-02-21T17:04:51;5.28;;;2.17;;
9384;SDS011;4732;49.340;10.886;2024-02-21T17:07:18;8.95;;;2.10;;
9384;SDS011;4732;49.340;10.886;2024-02-21T17:09:47;2.65;;;1.60;;
9384;SDS011;4732;49.340;10.886;2024-02-21T17:12:12;5.00;;;2.00;;
9384;SDS011;4732;49.340;10.886;2024-02-21T17:14:38;4.25;;;1.88;;
9384;SDS011;4732;49.340;10.886;2024-02-21T17:17:07;5.32;;;1.75;;
9384;SDS011;4732;49.340;10.886;2024-02-21T17:19:33;3.40;;;1.80;;
9384;SDS011;4732;49.340;10.886;2024-02-21T17:21:59;4.70;;;1.80;;
9384;SDS011;4732;49.340;10.886;2024-02-21T17:24:24;5.15;;;1.90;;
9384;SDS011;4732;49.340;10.886;2024-02-21T17:26:51;3.00;;;1.65;;
9384;SDS011;4732;49.340;10.886;2024-02-21T17:29:17;2.55;;;1.48;;
9384;SDS011;4732;49.340;10.886;2024-02-21T17:31:43;4.07;;;1.90;;
9384;SDS011;4732;49.340;10.886;2024-02-21T17:34:09;3.70;;;1.70;;
9384;SDS011;4732;49.340;10.886;2024-02-21T17:36:34;3.25;;;1.80;;
9384;SDS011;4732;49.340;10.886;2024-02-21T17:39:00;5.38;;;1.70;;
9384;SDS011;4732;49.340;10.886;2024-02-21T17:41:26;3.63;;;1.80;;
9384;SDS011;4732;49.340;10.886;2024-02-21T17:43:52;3.40;;;1.67;;
9384;SDS011;4732;49.340;10.886;2024-02-21T17:46:17;3.03;;;1.88;;
9384;SDS011;4732;49.340;10.886;2024-02-21T17:48:43;5.88;;;3.17;;
9384;SDS011;4732;49.340;10.886;2024-02-21T17:51:08;5.25;;;3.10;;
9384;SDS011;4732;49.340;10.886;2024-02-21T17:53:34;6.07;;;3.08;;
9384;SDS011;4732;49.340;10.886;2024-02-21T17:55:59;4.35;;;2.88;;
9384;SDS011;4732;49.340;10.886;2024-02-21T17:58:25;4.25;;;2.40;;
9384;SDS011;4732;49.340;10.886;2024-02-21T18:00:50;3.78;;;2.05;;
9384;SDS011;4732;49.340;10.886;2024-02-21T18:03:18;3.53;;;2.47;;
9384;SDS011;4732;49.340;10.886;2024-02-21T18:05:45;5.07;;;2.10;;
9384;SDS011;4732;49.340;10.886;2024-02-21T18:08:11;4.22;;;1.90;;
9384;SDS011;4732;49.340;10.886;2024-02-21T18:10:37;4.63;;;2.30;;
9384;SDS011;4732;49.340;10.886;2024-02-21T18:13:06;4.70;;;2.60;;
9384;SDS011;4732;49.340;10.886;2024-02-21T18:15:31;6.75;;;2.80;;
9384;SDS011;4732;49.340;10.886;2024-02-21T18:17:57;5.50;;;2.55;;
9384;SDS011;4732;49.340;10.886;2024-02-21T18:20:23;3.67;;;2.22;;
9384;SDS011;4732;49.340;10.886;2024-02-21T18:22:49;4.97;;;2.97;;
9384;SDS011;4732;49.340;10.886;2024-02-21T18:25:15;5.57;;;2.80;;
9384;SDS011;4732;49.340;10.886;2024-02-21T18:27:40;3.55;;;2.70;;
9384;SDS011;4732;49.340;10.886;2024-02-21T18:30:06;7.53;;;3.38;;
9384;SDS011;4732;49.340;10.886;2024-02-21T18:32:32;3.95;;;2.80;;
9384;SDS011;4732;49.340;10.886;2024-02-21T18:34:58;2.67;;;2.45;;
9384;SDS011;4732;49.340;10.886;2024-02-21T18:37:23;5.60;;;2.42;;
9384;SDS011;4732;49.340;10.886;2024-02-21T18:39:49;3.60;;;2.50;;
9384;SDS011;4732;49.340;10.886;2024-02-21T18:42:15;3.90;;;2.75;;
9384;SDS011;4732;49.340;10.886;2024-02-21T18:44:40;3.47;;;2.20;;
9384;SDS011;4732;49.340;10.886;2024-02-21T18:47:09;4.72;;;2.92;;
9384;SDS011;4732;49.340;10.886;2024-02-21T18:49:34;7.05;;;3.95;;
9384;SDS011;4732;49.340;10.886;2024-02-21T18:52:02;5.90;;;3.45;;
9384;SDS011;4732;49.340;10.886;2024-02-21T18:54:27;3.20;;;2.50;;
9384;SDS011;4732;49.340;10.886;2024-02-21T18:56:55;3.63;;;2.35;;
9384;SDS011;4732;49.340;10.886;2024-02-21T18:59:21;6.97;;;2.65;;
9384;SDS011;4732;49.340;10.886;2024-02-21T19:01:46;4.57;;;2.30;;
9384;SDS011;4732;49.340;10.886;2024-02-21T19:04:12;2.83;;;2.05;;